Chipping Ongar, United Kingdom
Current Conditions -  °F | °C
As of 3:50 AM on Tuesday 23 Dec 2014 (Local Time) from EGSS Reporting Station
Broken Clouds Broken Clouds  
Wind Chill: 52°   Ceiling: 3100
Heat Index: 52°   Visibility: 6mi
Dew Point: 41°   Wind: 21mph
Humidity: 67%   Direction: 250°WSW
Pressure: 30"   Gusts: 32mph
Location:  51.7°N, 0.25°E
Report Text: EGSS 230350Z 25018G28KT 9999 BKN031 11/05 Q1016
Loading
Personal Weather Stations






























Interactive Weather Map New forecast layout! Learn more

10-Day Weather Forecast

Advertisements
Track Severe Weather on mobile